ADDS METAR Data INFO
IDs: Format: Raw Decoded Include TAF

Data at: 0855 UTC 19 Jun 2018

KRSN 190835Z AUTO 14003KT 10SM -RA BKN120 23/20 A3008 RMK AO2 P0001 T02260200
KRSN 190815Z AUTO 12003KT 10SM -DZ SCT120 23/20 A3007 RMK AO2 T02260196
KRSN 190755Z AUTO 00000KT 10SM CLR 23/19 A3007 RMK AO2 T02270194
KRSN 190735Z AUTO 00000KT 10SM CLR 23/19 A3008 RMK AO2 T02260192
KRSN 190715Z AUTO 00000KT 10SM CLR 23/19 A3008 RMK AO2 T02250192
KRSN 190655Z AUTO 00000KT 10SM CLR 23/19 A3009 RMK AO2 T02260192
KRSN 190635Z AUTO 00000KT 10SM CLR 23/19 A3009 RMK AO2 T02270192
KRSN 190615Z AUTO 00000KT 10SM CLR 22/20 A3010 RMK AO2 T02200197
KRSN 190555Z AUTO 00000KT 10SM CLR 23/19 A3010 RMK AO2 T02260194 10269 20220 403060203
KRSN 190535Z AUTO 00000KT 10SM CLR 22/20 A3011 RMK AO2 T02230198
KRSN 190515Z AUTO 00000KT 10SM CLR 23/20 A3011 RMK AO2 T02270198
KRSN 190455Z AUTO 00000KT 10SM CLR 23/20 A3011 RMK AO2 T02250199
KRSN 190435Z AUTO 00000KT 10SM CLR 22/20 A3011 RMK AO2 T02230200
KRSN 190415Z AUTO 00000KT 10SM CLR 23/20 A3011 RMK AO2 T02270197
KRSN 190355Z AUTO 00000KT 10SM CLR 24/19 A3010 RMK AO2 T02350193
KRSN 190335Z AUTO 00000KT 10SM CLR 24/19 A3010 RMK AO2 T02360192
KRSN 190315Z AUTO 00000KT 10SM CLR 24/19 A3010 RMK AO2 T02360191
KRSN 190255Z AUTO 00000KT 10SM CLR 23/19 A3010 RMK AO2 T02340194
KRSN 190235Z AUTO 00000KT 10SM CLR 24/19 A3009 RMK AO2 T02400190
KRSN 190215Z AUTO 15004KT 10SM CLR 24/19 A3009 RMK AO2 T02420190
KRSN 190155Z AUTO 15004KT 10SM CLR 25/19 A3009 RMK AO2 T02460191
KRSN 190135Z AUTO 15003KT 10SM CLR 25/19 A3009 RMK AO2 T02500192
KRSN 190115Z AUTO 15005KT 10SM CLR 26/20 A3009 RMK AO2 T02550199
KRSN 190055Z AUTO 16006KT 10SM CLR 26/20 A3010 RMK AO2 T02600196
KRSN 190035Z AUTO 16009KT 10SM CLR 26/20 A3010 RMK AO2 T02640200
KRSN 190015Z AUTO 17010KT 10SM CLR 27/21 A3010 RMK AO2 T02670205
KRSN 182355Z AUTO 16008G14KT 10SM SCT024 27/21 A3009 RMK AO2 T02680205 10306 20268
KRSN 182335Z AUTO 16007KT 10SM BKN024 BKN031 BKN039 27/21 A3009 RMK AO2 T02680205
KRSN 182315Z AUTO 15009G14KT 10SM SCT029 BKN037 28/20 A3009 RMK AO2 T02760204
KRSN 182255Z AUTO 16008G11KT 10SM SCT027 SCT032 28/20 A3009 RMK AO2 T02790201
KRSN 182235Z AUTO 16010G15KT 10SM CLR 28/20 A3009 RMK AO2 T02820197
KRSN 182215Z AUTO 17013KT 10SM CLR 29/20 A3010 RMK AO2 T02890195
KRSN 182155Z AUTO 16009G20KT 10SM CLR 29/19 A3010 RMK AO2 T02860189
KRSN 182135Z AUTO 19016G23KT 10SM CLR 29/18 A3010 RMK AO2 T02930181
KRSN 182115Z AUTO 16011G17KT 10SM CLR 29/18 A3010 RMK AO2 T02930179
KRSN 182055Z AUTO 17011G19KT 10SM CLR 30/18 A3010 RMK AO2 T03040183
KRSN 182035Z AUTO 16008G15KT 10SM CLR 29/19 A3011 RMK AO2 T02900191
KRSN 182015Z AUTO 16008KT 10SM SCT100 29/20 A3012 RMK AO2 T02870198
KRSN 181955Z AUTO 17010G15KT 10SM SCT100 29/20 A3012 RMK AO2 T02870197
KRSN 181935Z AUTO 18013G20KT 10SM SCT085 30/19 A3013 RMK AO2 T02960190
KRSN 181915Z AUTO 17014G22KT 10SM CLR 29/19 A3013 RMK AO2 T02940194
KRSN 181855Z AUTO 15011G19KT 10SM SCT026 29/19 A3013 RMK AO2 T02870194
KRSN 181835Z AUTO 18012G21KT 10SM BKN024 29/20 A3014 RMK AO2 T02860204
KRSN 181815Z AUTO 16013G19KT 10SM BKN022 BKN029 28/22 A3014 RMK AO2 T02790215
KRSN 181755Z AUTO 18017G22KT 10SM BKN024 BKN120 28/21 A3015 RMK AO2 60003 T02840214 10306 20220
KRSN 181735Z AUTO 15011G19KT 10SM SCT120 28/21 A3015 RMK AO2 LTG DSNT NE T02770207
KRSN 181715Z AUTO 17012G16KT 10SM SCT075 BKN090 27/21 A3015 RMK AO2 T02690205
KRSN 181655Z AUTO 15007KT 10SM SCT050 BKN080 OVC095 24/20 A3015 RMK AO2 P0003 T02430200
KRSN 181635Z AUTO 16009KT 10SM -RA SCT030 SCT041 OVC055 24/19 A3016 RMK AO2 LTG DSNT W P0003 T02350191
KRSN 181615Z AUTO 17021G29KT 10SM SCT030 BKN041 BKN049 29/21 A3015 RMK AO2 T02930208
KRSN 181555Z AUTO 15005KT 10SM SCT026 SCT033 BKN041 29/23 A3013 RMK AO2 T02940226
KRSN 181535Z AUTO 16010G14KT 10SM SCT024 BKN032 BKN042 29/22 A3013 RMK AO2 T02940222
KRSN 181515Z AUTO 15008G16KT 10SM SCT021 SCT026 BKN032 29/23 A3012 RMK AO2 T02900226
KRSN 181455Z AUTO 14011G16KT 7SM SCT018 BKN023 29/23 A3012 RMK AO2 T02900230
KRSN 181435Z AUTO 16009G14KT 10SM BKN014 28/23 A3013 RMK AO2 T02840232
KRSN 181415Z AUTO 15008KT 10SM OVC012 27/23 A3012 RMK AO2 T02720229
KRSN 181355Z AUTO 16007KT 10SM SCT012 27/23 A3013 RMK AO2 T02650225
KRSN 181335Z AUTO 14005KT 10SM CLR 26/22 A3012 RMK AO2 T02570220
KRSN 181315Z AUTO 13004KT 10SM CLR 25/22 A3012 RMK AO2 T02500216
KRSN 181255Z AUTO 00000KT 10SM SCT080 24/21 A3012 RMK AO2 T02410209
KRSN 181235Z AUTO 00000KT 10SM SCT016 BKN080 23/21 A3012 RMK AO2 T02300205
KRSN 181215Z AUTO 00000KT 10SM SCT017 23/20 A3011 RMK AO2 T02250204
KRSN 181155Z AUTO 00000KT 10SM BKN017 BKN023 22/20 A3010 RMK AO2 70002 T02200201 10236 20203
KRSN 181135Z AUTO 00000KT 10SM SCT017 22/20 A3010 RMK AO2 T02150201
KRSN 181115Z AUTO 00000KT 10SM CLR 21/20 A3009 RMK AO2 T02070197
KRSN 181055Z AUTO 00000KT 10SM CLR 21/20 A3009 RMK AO2 T02070196
KRSN 181035Z AUTO 00000KT 10SM CLR 21/20 A3009 RMK AO2 T02120197
KRSN 181015Z AUTO 00000KT 10SM CLR 21/20 A3009 RMK AO2 T02130198
KRSN 180955Z AUTO 00000KT 10SM CLR 22/20 A3009 RMK AO2 T02210195
KRSN 180935Z AUTO 00000KT 10SM CLR 22/20 A3008 RMK AO2 T02200195
KRSN 180915Z AUTO 00000KT 10SM CLR 22/20 A3008 RMK AO2 T02180196
KRSN 180855Z AUTO 00000KT 10SM CLR 22/20 A3008 RMK AO2 T02180196
KRSN 180835Z AUTO 00000KT 10SM CLR 22/20 A3008 RMK AO2 T02170197
KRSN 180815Z AUTO 00000KT 10SM CLR 22/20 A3008 RMK AO2 T02210197
KRSN 180755Z AUTO 00000KT 10SM CLR 22/20 A3009 RMK AO2 T02210196
KRSN 180735Z AUTO 00000KT 10SM CLR 22/20 A3009 RMK AO2 T02210197
KRSN 180715Z AUTO 00000KT 10SM CLR 22/20 A3009 RMK AO2 T02240199
KRSN 180655Z AUTO 00000KT 10SM CLR 23/20 A3009 RMK AO2 T02300198
KRSN 180635Z AUTO 00000KT 10SM CLR 23/20 A3009 RMK AO2 T02310199
KRSN 180615Z AUTO 00000KT 10SM CLR 23/20 A3009 RMK AO2 T02340201
KRSN 180555Z AUTO 14003KT 10SM CLR 24/20 A3010 RMK AO2 T02350202 10298 20235 403310215
KRSN 180535Z AUTO 15003KT 10SM CLR 24/20 A3011 RMK AO2 T02390203
KRSN 180515Z AUTO 16003KT 10SM CLR 24/20 A3011 RMK AO2 T02400203
KRSN 180455Z AUTO 17004KT 10SM CLR 25/20 A3011 RMK AO2 T02450204
KRSN 180435Z AUTO 16005KT 10SM CLR 25/21 A3011 RMK AO2 T02480205
KRSN 180415Z AUTO 16007KT 10SM CLR 25/21 A3011 RMK AO2 T02510206
KRSN 180355Z AUTO 16007KT 10SM CLR 25/21 A3011 RMK AO2 T02500206
KRSN 180335Z AUTO 17005KT 10SM CLR 25/21 A3010 RMK AO2 T02500207
KRSN 180315Z AUTO 17005KT 10SM CLR 25/21 A3010 RMK AO2 T02520207
KRSN 180255Z AUTO 17004KT 10SM CLR 26/21 A3009 RMK AO2 T02560205
KRSN 180235Z AUTO 17007KT 10SM SCT042 SCT049 SCT060 26/20 A3009 RMK AO2 T02620204
KRSN 180215Z AUTO 19009G16KT 10SM SCT042 BKN049 OVC060 27/21 A3008 RMK AO2 T02720211
KRSN 180155Z AUTO 14007KT 10SM SCT042 SCT049 SCT070 27/21 A3007 RMK AO2 T02710212
KRSN 180135Z AUTO 00000KT 10SM CLR 28/21 A3006 RMK AO2 T02750212
KRSN 180115Z AUTO 15003KT 10SM CLR 28/21 A3006 RMK AO2 T02800209
KRSN 180055Z AUTO 00000KT 10SM CLR 29/21 A3006 RMK AO2 T02870206
KRSN 180035Z AUTO 15004KT 10SM SCT075 29/20 A3005 RMK AO2 T02940203
KRSN 180015Z AUTO 16007KT 10SM BKN075 30/20 A3005 RMK AO2 T02970200
KRSN 172355Z AUTO 16008KT 10SM OVC075 30/19 A3004 RMK AO2 60001 T02970193 10331 20266
KRSN 172335Z AUTO 16011G16KT 10SM SCT047 SCT055 BKN065 30/19 A3004 RMK AO2 T03020190
KRSN 172315Z AUTO 16012G21KT 10SM SCT049 SCT060 31/19 A3004 RMK AO2 T03100188
KRSN 172255Z AUTO 15007KT 10SM SCT048 33/20 A3003 RMK AO2 T03250200
KRSN 172235Z AUTO 15007KT 10SM SCT002 SCT048 33/21 A3003 RMK AO2 T03290205
KRSN 172215Z AUTO 16008KT 10SM SCT047 33/20 A3003 RMK AO2 T03270199
KRSN 172155Z AUTO 15009KT 10SM BKN047 33/20 A3003 RMK AO2 T03300204
KRSN 172135Z AUTO 12009KT 090V150 10SM SCT044 SCT050 BKN075 33/21 A3004 RMK AO2 T03280209
KRSN 172115Z AUTO 17007KT 10SM SCT044 SCT055 BKN095 31/21 A3004 RMK AO2 T03110208